sensor_id;sensor_type;location;lat;lon;timestamp;P1;durP1;ratioP1;P2;durP2;ratioP2
1136;SDS011;557;48.466;7.950;2023-06-22T00:00:25;11.90;;;9.50;;
1136;SDS011;557;48.466;7.950;2023-06-22T00:03:13;12.63;;;9.20;;
1136;SDS011;557;48.466;7.950;2023-06-22T00:06:00;9.90;;;8.47;;
1136;SDS011;557;48.466;7.950;2023-06-22T00:08:47;10.07;;;8.40;;
1136;SDS011;557;48.466;7.950;2023-06-22T00:11:36;10.50;;;9.40;;
1136;SDS011;557;48.466;7.950;2023-06-22T00:14:24;10.67;;;9.50;;
1136;SDS011;557;48.466;7.950;2023-06-22T00:17:11;9.27;;;8.37;;
1136;SDS011;557;48.466;7.950;2023-06-22T00:19:58;10.20;;;9.17;;
1136;SDS011;557;48.466;7.950;2023-06-22T00:22:45;11.37;;;8.47;;
1136;SDS011;557;48.466;7.950;2023-06-22T00:25:33;9.13;;;7.90;;
1136;SDS011;557;48.466;7.950;2023-06-22T00:28:22;10.87;;;9.70;;
1136;SDS011;557;48.466;7.950;2023-06-22T00:31:10;11.60;;;8.87;;
1136;SDS011;557;48.466;7.950;2023-06-22T00:33:57;10.10;;;9.10;;
1136;SDS011;557;48.466;7.950;2023-06-22T00:36:44;10.77;;;8.90;;
1136;SDS011;557;48.466;7.950;2023-06-22T00:39:32;11.17;;;10.07;;
1136;SDS011;557;48.466;7.950;2023-06-22T00:42:19;10.77;;;9.57;;
1136;SDS011;557;48.466;7.950;2023-06-22T00:45:08;11.13;;;9.27;;
1136;SDS011;557;48.466;7.950;2023-06-22T00:47:56;9.60;;;8.57;;
1136;SDS011;557;48.466;7.950;2023-06-22T00:50:44;10.70;;;9.57;;
1136;SDS011;557;48.466;7.950;2023-06-22T00:53:36;10.93;;;9.80;;
1136;SDS011;557;48.466;7.950;2023-06-22T00:56:23;10.93;;;9.93;;
1136;SDS011;557;48.466;7.950;2023-06-22T00:59:11;9.97;;;8.93;;
1136;SDS011;557;48.466;7.950;2023-06-22T01:02:00;10.63;;;9.37;;
1136;SDS011;557;48.466;7.950;2023-06-22T01:04:47;10.73;;;9.63;;
1136;SDS011;557;48.466;7.950;2023-06-22T01:10:43;11.67;;;9.67;;
1136;SDS011;557;48.466;7.950;2023-06-22T01:13:37;10.40;;;8.80;;
1136;SDS011;557;48.466;7.950;2023-06-22T01:16:29;10.10;;;9.10;;
1136;SDS011;557;48.466;7.950;2023-06-22T01:19:27;10.57;;;9.10;;
1136;SDS011;557;48.466;7.950;2023-06-22T01:22:23;9.60;;;8.33;;
1136;SDS011;557;48.466;7.950;2023-06-22T01:25:17;11.37;;;8.40;;
1136;SDS011;557;48.466;7.950;2023-06-22T01:28:10;10.27;;;8.90;;
1136;SDS011;557;48.466;7.950;2023-06-22T01:31:15;11.17;;;8.30;;
1136;SDS011;557;48.466;7.950;2023-06-22T01:34:05;14.47;;;10.03;;
1136;SDS011;557;48.466;7.950;2023-06-22T01:36:53;11.47;;;9.13;;
1136;SDS011;557;48.466;7.950;2023-06-22T01:39:41;11.50;;;9.70;;
1136;SDS011;557;48.466;7.950;2023-06-22T01:42:29;11.60;;;9.97;;
1136;SDS011;557;48.466;7.950;2023-06-22T01:45:17;12.07;;;9.83;;
1136;SDS011;557;48.466;7.950;2023-06-22T01:48:07;10.10;;;9.10;;
1136;SDS011;557;48.466;7.950;2023-06-22T01:50:54;13.07;;;9.63;;
1136;SDS011;557;48.466;7.950;2023-06-22T01:53:42;12.40;;;10.57;;
1136;SDS011;557;48.466;7.950;2023-06-22T01:56:30;12.43;;;9.57;;
1136;SDS011;557;48.466;7.950;2023-06-22T01:59:19;10.87;;;9.20;;
1136;SDS011;557;48.466;7.950;2023-06-22T02:02:13;12.37;;;10.03;;
1136;SDS011;557;48.466;7.950;2023-06-22T02:05:05;10.70;;;9.60;;
1136;SDS011;557;48.466;7.950;2023-06-22T02:07:56;12.07;;;9.00;;
1136;SDS011;557;48.466;7.950;2023-06-22T02:10:49;10.57;;;8.70;;
1136;SDS011;557;48.466;7.950;2023-06-22T02:13:39;12.63;;;9.10;;
1136;SDS011;557;48.466;7.950;2023-06-22T02:16:28;14.77;;;9.40;;
1136;SDS011;557;48.466;7.950;2023-06-22T02:19:22;10.60;;;8.83;;
1136;SDS011;557;48.466;7.950;2023-06-22T02:22:11;9.57;;;8.53;;
1136;SDS011;557;48.466;7.950;2023-06-22T02:24:59;10.23;;;8.90;;
1136;SDS011;557;48.466;7.950;2023-06-22T02:27:46;12.80;;;8.97;;
1136;SDS011;557;48.466;7.950;2023-06-22T02:30:33;10.67;;;9.00;;
1136;SDS011;557;48.466;7.950;2023-06-22T02:33:21;10.43;;;9.20;;
1136;SDS011;557;48.466;7.950;2023-06-22T02:36:09;10.20;;;8.77;;
1136;SDS011;557;48.466;7.950;2023-06-22T02:38:59;10.33;;;8.47;;
1136;SDS011;557;48.466;7.950;2023-06-22T02:41:49;10.80;;;9.00;;
1136;SDS011;557;48.466;7.950;2023-06-22T02:44:36;10.33;;;9.23;;
1136;SDS011;557;48.466;7.950;2023-06-22T02:47:24;12.83;;;8.83;;
1136;SDS011;557;48.466;7.950;2023-06-22T02:50:12;10.33;;;9.20;;
1136;SDS011;557;48.466;7.950;2023-06-22T02:52:59;10.50;;;9.43;;
1136;SDS011;557;48.466;7.950;2023-06-22T02:55:48;10.97;;;8.73;;
1136;SDS011;557;48.466;7.950;2023-06-22T02:58:35;11.83;;;9.33;;
1136;SDS011;557;48.466;7.950;2023-06-22T03:01:24;10.20;;;8.80;;
1136;SDS011;557;48.466;7.950;2023-06-22T03:04:13;14.27;;;10.07;;
1136;SDS011;557;48.466;7.950;2023-06-22T03:07:01;12.10;;;9.90;;
1136;SDS011;557;48.466;7.950;2023-06-22T03:09:48;13.57;;;10.03;;
1136;SDS011;557;48.466;7.950;2023-06-22T03:12:37;11.80;;;9.90;;
1136;SDS011;557;48.466;7.950;2023-06-22T03:15:25;13.00;;;10.33;;
1136;SDS011;557;48.466;7.950;2023-06-22T03:18:14;13.47;;;10.70;;
1136;SDS011;557;48.466;7.950;2023-06-22T03:21:02;14.90;;;12.17;;
1136;SDS011;557;48.466;7.950;2023-06-22T03:23:49;16.23;;;12.83;;
1136;SDS011;557;48.466;7.950;2023-06-22T03:26:37;16.80;;;12.77;;
1136;SDS011;557;48.466;7.950;2023-06-22T03:29:25;14.33;;;11.93;;
1136;SDS011;557;48.466;7.950;2023-06-22T03:32:12;15.73;;;10.80;;
1136;SDS011;557;48.466;7.950;2023-06-22T03:35:00;13.37;;;10.93;;
1136;SDS011;557;48.466;7.950;2023-06-22T03:37:48;14.63;;;11.70;;
1136;SDS011;557;48.466;7.950;2023-06-22T03:40:35;13.00;;;9.77;;
1136;SDS011;557;48.466;7.950;2023-06-22T03:43:22;14.30;;;12.80;;
1136;SDS011;557;48.466;7.950;2023-06-22T03:46:11;17.40;;;13.10;;
1136;SDS011;557;48.466;7.950;2023-06-22T03:48:58;15.03;;;11.70;;
1136;SDS011;557;48.466;7.950;2023-06-22T03:51:47;12.67;;;11.37;;
1136;SDS011;557;48.466;7.950;2023-06-22T03:54:34;15.20;;;12.87;;
1136;SDS011;557;48.466;7.950;2023-06-22T03:57:21;13.80;;;11.53;;
1136;SDS011;557;48.466;7.950;2023-06-22T04:00:09;17.17;;;12.10;;
1136;SDS011;557;48.466;7.950;2023-06-22T04:02:58;14.07;;;11.13;;
1136;SDS011;557;48.466;7.950;2023-06-22T04:05:45;13.23;;;11.20;;
1136;SDS011;557;48.466;7.950;2023-06-22T04:08:34;14.53;;;10.53;;
1136;SDS011;557;48.466;7.950;2023-06-22T04:11:21;12.50;;;11.20;;
1136;SDS011;557;48.466;7.950;2023-06-22T04:14:08;14.33;;;12.20;;
1136;SDS011;557;48.466;7.950;2023-06-22T04:16:56;12.30;;;10.97;;
1136;SDS011;557;48.466;7.950;2023-06-22T04:19:45;12.33;;;11.00;;
1136;SDS011;557;48.466;7.950;2023-06-22T04:22:32;19.13;;;11.73;;
1136;SDS011;557;48.466;7.950;2023-06-22T04:25:20;14.57;;;11.83;;
1136;SDS011;557;48.466;7.950;2023-06-22T04:28:07;13.63;;;11.30;;
1136;SDS011;557;48.466;7.950;2023-06-22T04:30:57;12.40;;;10.30;;
1136;SDS011;557;48.466;7.950;2023-06-22T04:33:47;13.97;;;12.47;;
1136;SDS011;557;48.466;7.950;2023-06-22T04:36:38;18.53;;;13.47;;
1136;SDS011;557;48.466;7.950;2023-06-22T04:39:27;11.93;;;10.30;;
1136;SDS011;557;48.466;7.950;2023-06-22T04:42:14;11.13;;;9.90;;
1136;SDS011;557;48.466;7.950;2023-06-22T04:45:02;13.93;;;11.97;;
1136;SDS011;557;48.466;7.950;2023-06-22T04:47:50;15.20;;;11.57;;
1136;SDS011;557;48.466;7.950;2023-06-22T04:50:37;15.60;;;12.57;;
1136;SDS011;557;48.466;7.950;2023-06-22T04:53:26;13.80;;;10.83;;
1136;SDS011;557;48.466;7.950;2023-06-22T04:56:15;12.67;;;10.33;;
1136;SDS011;557;48.466;7.950;2023-06-22T04:59:03;13.43;;;10.23;;
1136;SDS011;557;48.466;7.950;2023-06-22T05:01:50;13.27;;;8.90;;
1136;SDS011;557;48.466;7.950;2023-06-22T05:04:39;10.40;;;8.80;;
1136;SDS011;557;48.466;7.950;2023-06-22T05:07:26;15.83;;;9.77;;
1136;SDS011;557;48.466;7.950;2023-06-22T05:10:15;11.20;;;9.37;;
1136;SDS011;557;48.466;7.950;2023-06-22T05:13:02;13.43;;;9.00;;
1136;SDS011;557;48.466;7.950;2023-06-22T05:15:49;11.93;;;9.17;;
1136;SDS011;557;48.466;7.950;2023-06-22T05:18:38;11.13;;;10.03;;
1136;SDS011;557;48.466;7.950;2023-06-22T05:21:27;11.80;;;9.70;;
1136;SDS011;557;48.466;7.950;2023-06-22T05:24:14;11.13;;;9.33;;
1136;SDS011;557;48.466;7.950;2023-06-22T05:27:05;12.30;;;9.90;;
1136;SDS011;557;48.466;7.950;2023-06-22T05:29:53;15.17;;;10.50;;
1136;SDS011;557;48.466;7.950;2023-06-22T05:32:40;11.53;;;10.17;;
1136;SDS011;557;48.466;7.950;2023-06-22T05:35:29;13.33;;;10.90;;
1136;SDS011;557;48.466;7.950;2023-06-22T05:38:17;13.40;;;10.77;;
1136;SDS011;557;48.466;7.950;2023-06-22T05:41:04;14.63;;;10.83;;
1136;SDS011;557;48.466;7.950;2023-06-22T05:43:53;12.27;;;9.70;;
1136;SDS011;557;48.466;7.950;2023-06-22T05:46:40;12.00;;;10.10;;
1136;SDS011;557;48.466;7.950;2023-06-22T05:49:29;13.03;;;10.33;;
1136;SDS011;557;48.466;7.950;2023-06-22T05:52:18;12.00;;;9.97;;
1136;SDS011;557;48.466;7.950;2023-06-22T05:55:05;14.63;;;9.00;;
1136;SDS011;557;48.466;7.950;2023-06-22T05:57:53;11.70;;;9.77;;
1136;SDS011;557;48.466;7.950;2023-06-22T06:00:42;12.23;;;10.40;;
1136;SDS011;557;48.466;7.950;2023-06-22T06:03:33;11.33;;;9.70;;
1136;SDS011;557;48.466;7.950;2023-06-22T06:06:26;12.50;;;9.70;;
1136;SDS011;557;48.466;7.950;2023-06-22T06:09:14;11.90;;;10.30;;
1136;SDS011;557;48.466;7.950;2023-06-22T06:12:01;11.30;;;9.80;;
1136;SDS011;557;48.466;7.950;2023-06-22T06:14:49;13.37;;;11.20;;
1136;SDS011;557;48.466;7.950;2023-06-22T06:17:46;11.93;;;10.13;;
1136;SDS011;557;48.466;7.950;2023-06-22T06:20:33;13.37;;;10.10;;
1136;SDS011;557;48.466;7.950;2023-06-22T06:23:21;14.20;;;9.77;;
1136;SDS011;557;48.466;7.950;2023-06-22T06:26:08;15.90;;;9.93;;
1136;SDS011;557;48.466;7.950;2023-06-22T06:28:55;12.40;;;10.73;;
1136;SDS011;557;48.466;7.950;2023-06-22T06:31:43;14.93;;;10.73;;
1136;SDS011;557;48.466;7.950;2023-06-22T06:34:32;11.07;;;9.30;;
1136;SDS011;557;48.466;7.950;2023-06-22T06:37:19;14.13;;;10.80;;
1136;SDS011;557;48.466;7.950;2023-06-22T06:40:07;13.60;;;10.50;;
1136;SDS011;557;48.466;7.950;2023-06-22T06:42:56;12.13;;;10.30;;
1136;SDS011;557;48.466;7.950;2023-06-22T06:45:44;11.97;;;10.13;;
1136;SDS011;557;48.466;7.950;2023-06-22T06:48:31;11.00;;;9.70;;
1136;SDS011;557;48.466;7.950;2023-06-22T06:51:20;9.93;;;8.93;;
1136;SDS011;557;48.466;7.950;2023-06-22T06:54:07;12.65;;;10.52;;
1136;SDS011;557;48.466;7.950;2023-06-22T06:56:55;11.63;;;10.43;;
1136;SDS011;557;48.466;7.950;2023-06-22T06:59:42;12.43;;;10.40;;
1136;SDS011;557;48.466;7.950;2023-06-22T07:02:30;10.40;;;9.10;;
1136;SDS011;557;48.466;7.950;2023-06-22T07:05:17;10.00;;;8.98;;
1136;SDS011;557;48.466;7.950;2023-06-22T07:08:06;13.75;;;12.32;;
1136;SDS011;557;48.466;7.950;2023-06-22T07:10:53;15.90;;;11.65;;
1136;SDS011;557;48.466;7.950;2023-06-22T07:13:40;15.48;;;12.43;;
1136;SDS011;557;48.466;7.950;2023-06-22T07:16:28;14.35;;;11.00;;
1136;SDS011;557;48.466;7.950;2023-06-22T07:19:16;12.40;;;10.98;;
1136;SDS011;557;48.466;7.950;2023-06-22T07:22:12;12.43;;;11.23;;
1136;SDS011;557;48.466;7.950;2023-06-22T07:25:00;11.73;;;10.48;;
1136;SDS011;557;48.466;7.950;2023-06-22T07:27:57;12.98;;;11.23;;
1136;SDS011;557;48.466;7.950;2023-06-22T07:30:46;12.00;;;10.63;;
1136;SDS011;557;48.466;7.950;2023-06-22T07:33:34;13.80;;;12.50;;
1136;SDS011;557;48.466;7.950;2023-06-22T07:36:21;11.88;;;10.50;;
1136;SDS011;557;48.466;7.950;2023-06-22T07:39:08;13.85;;;10.77;;
1136;SDS011;557;48.466;7.950;2023-06-22T07:41:57;14.00;;;11.57;;
1136;SDS011;557;48.466;7.950;2023-06-22T07:44:44;12.93;;;11.63;;
1136;SDS011;557;48.466;7.950;2023-06-22T07:47:35;11.07;;;9.98;;
1136;SDS011;557;48.466;7.950;2023-06-22T07:50:22;10.45;;;9.15;;
1136;SDS011;557;48.466;7.950;2023-06-22T07:53:09;11.90;;;10.75;;
1136;SDS011;557;48.466;7.950;2023-06-22T07:55:57;11.27;;;10.27;;
1136;SDS011;557;48.466;7.950;2023-06-22T07:58:46;13.85;;;11.75;;
1136;SDS011;557;48.466;7.950;2023-06-22T08:01:34;12.20;;;10.53;;
1136;SDS011;557;48.466;7.950;2023-06-22T08:04:21;12.75;;;11.13;;
1136;SDS011;557;48.466;7.950;2023-06-22T08:07:08;12.23;;;11.10;;
1136;SDS011;557;48.466;7.950;2023-06-22T08:09:56;14.77;;;12.75;;
1136;SDS011;557;48.466;7.950;2023-06-22T08:12:43;17.48;;;12.25;;
1136;SDS011;557;48.466;7.950;2023-06-22T08:15:32;18.50;;;12.77;;
1136;SDS011;557;48.466;7.950;2023-06-22T08:18:19;13.27;;;11.80;;
1136;SDS011;557;48.466;7.950;2023-06-22T08:21:06;14.85;;;13.25;;
1136;SDS011;557;48.466;7.950;2023-06-22T08:23:54;14.45;;;12.73;;
1136;SDS011;557;48.466;7.950;2023-06-22T08:26:41;13.77;;;11.68;;
1136;SDS011;557;48.466;7.950;2023-06-22T08:29:28;14.48;;;12.73;;
1136;SDS011;557;48.466;7.950;2023-06-22T08:32:17;13.98;;;12.60;;
1136;SDS011;557;48.466;7.950;2023-06-22T08:35:05;16.95;;;13.38;;
1136;SDS011;557;48.466;7.950;2023-06-22T08:37:53;17.83;;;14.10;;
1136;SDS011;557;48.466;7.950;2023-06-22T08:40:42;14.07;;;12.65;;
1136;SDS011;557;48.466;7.950;2023-06-22T08:43:29;17.45;;;13.20;;
1136;SDS011;557;48.466;7.950;2023-06-22T08:46:16;14.23;;;12.07;;
1136;SDS011;557;48.466;7.950;2023-06-22T08:49:09;13.57;;;12.02;;
1136;SDS011;557;48.466;7.950;2023-06-22T08:51:56;14.40;;;13.00;;
1136;SDS011;557;48.466;7.950;2023-06-22T08:54:44;15.05;;;13.55;;
1136;SDS011;557;48.466;7.950;2023-06-22T08:57:31;16.80;;;12.73;;
1136;SDS011;557;48.466;7.950;2023-06-22T09:00:19;13.20;;;11.93;;
1136;SDS011;557;48.466;7.950;2023-06-22T09:03:06;12.85;;;11.48;;
1136;SDS011;557;48.466;7.950;2023-06-22T09:05:55;14.88;;;13.48;;
1136;SDS011;557;48.466;7.950;2023-06-22T09:08:42;13.55;;;12.32;;
1136;SDS011;557;48.466;7.950;2023-06-22T09:11:30;15.60;;;14.20;;
1136;SDS011;557;48.466;7.950;2023-06-22T09:14:17;15.18;;;13.77;;
1136;SDS011;557;48.466;7.950;2023-06-22T09:17:04;15.48;;;13.98;;
1136;SDS011;557;48.466;7.950;2023-06-22T09:19:52;14.52;;;13.23;;
1136;SDS011;557;48.466;7.950;2023-06-22T09:22:41;15.63;;;14.00;;
1136;SDS011;557;48.466;7.950;2023-06-22T09:25:28;16.33;;;14.57;;
1136;SDS011;557;48.466;7.950;2023-06-22T09:28:16;16.55;;;14.85;;
1136;SDS011;557;48.466;7.950;2023-06-22T09:31:03;14.85;;;13.23;;
1136;SDS011;557;48.466;7.950;2023-06-22T09:33:51;15.20;;;13.80;;
1136;SDS011;557;48.466;7.950;2023-06-22T09:36:40;14.40;;;13.00;;
1136;SDS011;557;48.466;7.950;2023-06-22T09:39:29;15.38;;;13.90;;
1136;SDS011;557;48.466;7.950;2023-06-22T09:42:16;15.48;;;14.18;;
1136;SDS011;557;48.466;7.950;2023-06-22T09:45:04;13.70;;;12.70;;
1136;SDS011;557;48.466;7.950;2023-06-22T09:47:52;15.80;;;14.32;;
1136;SDS011;557;48.466;7.950;2023-06-22T09:50:39;16.38;;;15.02;;
1136;SDS011;557;48.466;7.950;2023-06-22T09:53:26;15.50;;;14.15;;
1136;SDS011;557;48.466;7.950;2023-06-22T09:56:15;15.82;;;14.38;;
1136;SDS011;557;48.466;7.950;2023-06-22T09:59:02;17.63;;;15.93;;
1136;SDS011;557;48.466;7.950;2023-06-22T10:01:50;15.20;;;13.80;;
1136;SDS011;557;48.466;7.950;2023-06-22T10:04:37;15.70;;;14.40;;
1136;SDS011;557;48.466;7.950;2023-06-22T10:07:25;16.42;;;15.00;;
1136;SDS011;557;48.466;7.950;2023-06-22T10:10:13;17.15;;;15.77;;
1136;SDS011;557;48.466;7.950;2023-06-22T10:13:07;16.67;;;15.57;;
1136;SDS011;557;48.466;7.950;2023-06-22T10:15:56;17.15;;;15.85;;
1136;SDS011;557;48.466;7.950;2023-06-22T10:18:43;17.85;;;16.20;;
1136;SDS011;557;48.466;7.950;2023-06-22T10:21:30;16.77;;;15.50;;
1136;SDS011;557;48.466;7.950;2023-06-22T10:24:19;18.33;;;16.80;;
1136;SDS011;557;48.466;7.950;2023-06-22T10:27:06;17.88;;;16.67;;
1136;SDS011;557;48.466;7.950;2023-06-22T10:29:55;18.42;;;17.02;;
1136;SDS011;557;48.466;7.950;2023-06-22T10:32:42;17.38;;;16.10;;
1136;SDS011;557;48.466;7.950;2023-06-22T10:35:30;20.08;;;18.58;;
1136;SDS011;557;48.466;7.950;2023-06-22T10:38:17;20.73;;;19.13;;
1136;SDS011;557;48.466;7.950;2023-06-22T10:41:04;19.77;;;18.38;;
1136;SDS011;557;48.466;7.950;2023-06-22T10:43:52;20.63;;;19.08;;
1136;SDS011;557;48.466;7.950;2023-06-22T10:46:40;20.35;;;18.90;;
1136;SDS011;557;48.466;7.950;2023-06-22T10:49:29;18.45;;;17.20;;
1136;SDS011;557;48.466;7.950;2023-06-22T10:52:16;20.60;;;18.83;;
1136;SDS011;557;48.466;7.950;2023-06-22T10:55:04;20.90;;;19.35;;
1136;SDS011;557;48.466;7.950;2023-06-22T10:57:52;20.23;;;18.73;;
1136;SDS011;557;48.466;7.950;2023-06-22T11:00:39;20.13;;;18.70;;
1136;SDS011;557;48.466;7.950;2023-06-22T11:03:28;21.75;;;20.13;;
1136;SDS011;557;48.466;7.950;2023-06-22T11:06:15;19.60;;;18.15;;
1136;SDS011;557;48.466;7.950;2023-06-22T11:09:02;21.48;;;19.80;;
1136;SDS011;557;48.466;7.950;2023-06-22T11:11:50;20.77;;;19.02;;
1136;SDS011;557;48.466;7.950;2023-06-22T11:14:39;19.60;;;18.00;;
1136;SDS011;557;48.466;7.950;2023-06-22T11:17:27;20.55;;;18.77;;
1136;SDS011;557;48.466;7.950;2023-06-22T11:20:15;20.00;;;18.58;;
1136;SDS011;557;48.466;7.950;2023-06-22T11:23:03;20.33;;;18.88;;
1136;SDS011;557;48.466;7.950;2023-06-22T11:25:50;20.95;;;19.35;;
1136;SDS011;557;48.466;7.950;2023-06-22T11:28:37;20.45;;;18.80;;
1136;SDS011;557;48.466;7.950;2023-06-22T11:31:25;20.45;;;18.95;;
1136;SDS011;557;48.466;7.950;2023-06-22T11:34:12;20.42;;;18.67;;
1136;SDS011;557;48.466;7.950;2023-06-22T11:37:01;19.65;;;18.17;;
1136;SDS011;557;48.466;7.950;2023-06-22T11:39:48;20.83;;;19.15;;
1136;SDS011;557;48.466;7.950;2023-06-22T11:42:35;19.77;;;18.15;;
1136;SDS011;557;48.466;7.950;2023-06-22T11:45:23;20.17;;;18.67;;
1136;SDS011;557;48.466;7.950;2023-06-22T11:48:10;20.45;;;18.60;;
1136;SDS011;557;48.466;7.950;2023-06-22T11:50:57;19.83;;;18.42;;
1136;SDS011;557;48.466;7.950;2023-06-22T11:53:46;20.83;;;19.02;;
1136;SDS011;557;48.466;7.950;2023-06-22T11:56:33;19.55;;;18.20;;
1136;SDS011;557;48.466;7.950;2023-06-22T11:59:21;20.20;;;18.60;;
1136;SDS011;557;48.466;7.950;2023-06-22T12:02:08;19.42;;;17.77;;
1136;SDS011;557;48.466;7.950;2023-06-22T12:04:55;20.95;;;19.45;;
1136;SDS011;557;48.466;7.950;2023-06-22T12:07:43;21.38;;;19.48;;
1136;SDS011;557;48.466;7.950;2023-06-22T12:10:32;20.60;;;19.10;;
1136;SDS011;557;48.466;7.950;2023-06-22T12:13:19;21.65;;;19.73;;
1136;SDS011;557;48.466;7.950;2023-06-22T12:16:07;19.23;;;17.83;;
1136;SDS011;557;48.466;7.950;2023-06-22T12:18:54;20.38;;;18.83;;
1136;SDS011;557;48.466;7.950;2023-06-22T12:21:41;20.10;;;18.65;;
1136;SDS011;557;48.466;7.950;2023-06-22T12:24:31;19.75;;;18.20;;
1136;SDS011;557;48.466;7.950;2023-06-22T12:27:19;20.30;;;18.67;;
1136;SDS011;557;48.466;7.950;2023-06-22T12:30:08;20.92;;;19.20;;
1136;SDS011;557;48.466;7.950;2023-06-22T12:32:55;21.02;;;19.33;;
1136;SDS011;557;48.466;7.950;2023-06-22T12:35:43;20.75;;;19.17;;
1136;SDS011;557;48.466;7.950;2023-06-22T12:38:31;20.50;;;18.52;;
1136;SDS011;557;48.466;7.950;2023-06-22T12:41:19;20.20;;;18.60;;
1136;SDS011;557;48.466;7.950;2023-06-22T12:44:08;20.15;;;18.50;;
1136;SDS011;557;48.466;7.950;2023-06-22T12:46:55;21.27;;;19.42;;
1136;SDS011;557;48.466;7.950;2023-06-22T12:49:43;20.52;;;19.08;;
1136;SDS011;557;48.466;7.950;2023-06-22T12:52:30;20.35;;;18.75;;
1136;SDS011;557;48.466;7.950;2023-06-22T12:55:18;19.38;;;17.88;;
1136;SDS011;557;48.466;7.950;2023-06-22T12:58:05;20.88;;;19.20;;
1136;SDS011;557;48.466;7.950;2023-06-22T13:00:54;21.83;;;19.88;;
1136;SDS011;557;48.466;7.950;2023-06-22T13:03:41;21.35;;;19.55;;
1136;SDS011;557;48.466;7.950;2023-06-22T13:06:28;20.67;;;19.17;;
1136;SDS011;557;48.466;7.950;2023-06-22T13:09:18;20.27;;;18.67;;
1136;SDS011;557;48.466;7.950;2023-06-22T13:12:05;23.55;;;22.00;;
1136;SDS011;557;48.466;7.950;2023-06-22T13:14:53;21.63;;;19.95;;
1136;SDS011;557;48.466;7.950;2023-06-22T13:17:42;26.05;;;24.13;;
1136;SDS011;557;48.466;7.950;2023-06-22T13:20:29;22.40;;;20.45;;
1136;SDS011;557;48.466;7.950;2023-06-22T13:23:17;21.02;;;19.45;;
1136;SDS011;557;48.466;7.950;2023-06-22T13:26:04;23.98;;;22.00;;
1136;SDS011;557;48.466;7.950;2023-06-22T13:28:52;20.60;;;19.17;;
1136;SDS011;557;48.466;7.950;2023-06-22T13:31:39;24.42;;;22.52;;
1136;SDS011;557;48.466;7.950;2023-06-22T13:34:28;23.30;;;21.60;;
1136;SDS011;557;48.466;7.950;2023-06-22T13:37:16;23.63;;;21.67;;
1136;SDS011;557;48.466;7.950;2023-06-22T13:40:05;22.85;;;21.05;;
1136;SDS011;557;48.466;7.950;2023-06-22T13:42:53;22.52;;;20.92;;
1136;SDS011;557;48.466;7.950;2023-06-22T13:45:40;21.13;;;19.45;;
1136;SDS011;557;48.466;7.950;2023-06-22T13:48:28;20.92;;;19.25;;
1136;SDS011;557;48.466;7.950;2023-06-22T13:51:17;22.25;;;20.50;;
1136;SDS011;557;48.466;7.950;2023-06-22T13:54:04;21.77;;;20.27;;
1136;SDS011;557;48.466;7.950;2023-06-22T13:56:52;21.25;;;19.67;;
1136;SDS011;557;48.466;7.950;2023-06-22T13:59:39;21.05;;;19.42;;
1136;SDS011;557;48.466;7.950;2023-06-22T14:02:27;23.55;;;21.55;;
1136;SDS011;557;48.466;7.950;2023-06-22T14:05:14;20.85;;;19.35;;
1136;SDS011;557;48.466;7.950;2023-06-22T14:08:03;23.25;;;21.48;;
1136;SDS011;557;48.466;7.950;2023-06-22T14:10:50;21.50;;;19.67;;
1136;SDS011;557;48.466;7.950;2023-06-22T14:13:39;22.67;;;20.90;;
1136;SDS011;557;48.466;7.950;2023-06-22T14:16:28;22.63;;;20.52;;
1136;SDS011;557;48.466;7.950;2023-06-22T14:19:16;22.10;;;20.40;;
1136;SDS011;557;48.466;7.950;2023-06-22T14:22:05;22.35;;;20.73;;
1136;SDS011;557;48.466;7.950;2023-06-22T14:24:53;22.65;;;21.17;;
1136;SDS011;557;48.466;7.950;2023-06-22T14:27:41;23.08;;;21.48;;
1136;SDS011;557;48.466;7.950;2023-06-22T14:30:29;22.25;;;20.35;;
1136;SDS011;557;48.466;7.950;2023-06-22T14:33:17;25.13;;;23.52;;
1136;SDS011;557;48.466;7.950;2023-06-22T14:36:04;21.33;;;19.65;;
1136;SDS011;557;48.466;7.950;2023-06-22T14:38:51;23.15;;;21.23;;
1136;SDS011;557;48.466;7.950;2023-06-22T14:41:40;21.50;;;19.92;;
1136;SDS011;557;48.466;7.950;2023-06-22T14:44:28;21.38;;;19.73;;
1136;SDS011;557;48.466;7.950;2023-06-22T14:47:15;24.48;;;22.73;;
1136;SDS011;557;48.466;7.950;2023-06-22T14:50:04;19.45;;;18.15;;
1136;SDS011;557;48.466;7.950;2023-06-22T14:52:51;27.70;;;25.77;;
1136;SDS011;557;48.466;7.950;2023-06-22T14:55:40;20.85;;;19.25;;
1136;SDS011;557;48.466;7.950;2023-06-22T14:58:29;21.67;;;19.90;;
1136;SDS011;557;48.466;7.950;2023-06-22T15:01:18;22.50;;;21.00;;
1136;SDS011;557;48.466;7.950;2023-06-22T15:04:06;23.23;;;21.23;;
1136;SDS011;557;48.466;7.950;2023-06-22T15:06:53;22.35;;;20.63;;
1136;SDS011;557;48.466;7.950;2023-06-22T15:09:40;25.70;;;23.52;;
1136;SDS011;557;48.466;7.950;2023-06-22T15:12:28;25.90;;;23.75;;
1136;SDS011;557;48.466;7.950;2023-06-22T15:15:16;25.42;;;23.63;;
1136;SDS011;557;48.466;7.950;2023-06-22T15:18:04;22.38;;;20.55;;
1136;SDS011;557;48.466;7.950;2023-06-22T15:20:51;21.60;;;19.85;;
1136;SDS011;557;48.466;7.950;2023-06-22T15:23:39;20.80;;;19.27;;
1136;SDS011;557;48.466;7.950;2023-06-22T15:26:26;20.98;;;19.58;;
1136;SDS011;557;48.466;7.950;2023-06-22T15:29:13;27.35;;;25.65;;
1136;SDS011;557;48.466;7.950;2023-06-22T15:32:02;21.58;;;19.88;;
1136;SDS011;557;48.466;7.950;2023-06-22T15:34:50;20.50;;;19.20;;
1136;SDS011;557;48.466;7.950;2023-06-22T15:37:39;23.40;;;21.67;;
1136;SDS011;557;48.466;7.950;2023-06-22T15:40:26;26.45;;;24.35;;
1136;SDS011;557;48.466;7.950;2023-06-22T15:43:13;22.27;;;20.80;;
1136;SDS011;557;48.466;7.950;2023-06-22T15:46:01;23.42;;;21.63;;
1136;SDS011;557;48.466;7.950;2023-06-22T15:48:49;24.90;;;23.15;;
1136;SDS011;557;48.466;7.950;2023-06-22T15:51:37;24.98;;;23.33;;
1136;SDS011;557;48.466;7.950;2023-06-22T15:54:24;24.40;;;22.70;;
1136;SDS011;557;48.466;7.950;2023-06-22T15:57:12;23.98;;;22.33;;
1136;SDS011;557;48.466;7.950;2023-06-22T15:59:59;25.10;;;23.38;;
1136;SDS011;557;48.466;7.950;2023-06-22T16:02:46;25.42;;;23.73;;
1136;SDS011;557;48.466;7.950;2023-06-22T16:05:35;29.65;;;27.38;;
1136;SDS011;557;48.466;7.950;2023-06-22T16:08:23;26.17;;;24.27;;
1136;SDS011;557;48.466;7.950;2023-06-22T16:11:11;25.83;;;23.95;;
1136;SDS011;557;48.466;7.950;2023-06-22T16:13:58;26.33;;;24.52;;
1136;SDS011;557;48.466;7.950;2023-06-22T16:16:45;24.98;;;23.08;;
1136;SDS011;557;48.466;7.950;2023-06-22T16:19:33;24.50;;;22.70;;
1136;SDS011;557;48.466;7.950;2023-06-22T16:22:21;26.42;;;24.60;;
1136;SDS011;557;48.466;7.950;2023-06-22T16:25:09;29.08;;;27.17;;
1136;SDS011;557;48.466;7.950;2023-06-22T16:27:56;23.08;;;21.35;;
1136;SDS011;557;48.466;7.950;2023-06-22T16:30:43;25.38;;;23.30;;
1136;SDS011;557;48.466;7.950;2023-06-22T16:33:31;24.23;;;22.33;;
1136;SDS011;557;48.466;7.950;2023-06-22T16:36:18;21.77;;;20.05;;
1136;SDS011;557;48.466;7.950;2023-06-22T16:39:07;24.77;;;22.63;;
1136;SDS011;557;48.466;7.950;2023-06-22T16:41:54;24.40;;;22.45;;
1136;SDS011;557;48.466;7.950;2023-06-22T16:44:41;22.98;;;21.13;;
1136;SDS011;557;48.466;7.950;2023-06-22T16:47:29;25.13;;;23.00;;
1136;SDS011;557;48.466;7.950;2023-06-22T16:50:16;23.33;;;21.73;;
1136;SDS011;557;48.466;7.950;2023-06-22T16:53:04;24.92;;;23.13;;
1136;SDS011;557;48.466;7.950;2023-06-22T16:55:53;21.85;;;20.17;;
1136;SDS011;557;48.466;7.950;2023-06-22T16:58:40;22.77;;;20.77;;
1136;SDS011;557;48.466;7.950;2023-06-22T17:01:27;24.42;;;22.63;;
1136;SDS011;557;48.466;7.950;2023-06-22T17:04:20;25.52;;;23.70;;
1136;SDS011;557;48.466;7.950;2023-06-22T17:07:11;21.90;;;20.25;;
1136;SDS011;557;48.466;7.950;2023-06-22T17:10:00;25.15;;;23.40;;
1136;SDS011;557;48.466;7.950;2023-06-22T17:12:49;24.35;;;22.45;;
1136;SDS011;557;48.466;7.950;2023-06-22T17:15:36;24.95;;;23.02;;